sensor_id;sensor_type;location;lat;lon;timestamp;P1;durP1;ratioP1;P2;durP2;ratioP2
8791;SDS011;4432;50.890;4.744;2022-08-30T00:00:06;5.07;;;1.90;;
8791;SDS011;4432;50.890;4.744;2022-08-30T00:02:56;2.47;;;2.10;;
8791;SDS011;4432;50.890;4.744;2022-08-30T00:05:25;7.33;;;2.20;;
8791;SDS011;4432;50.890;4.744;2022-08-30T00:07:51;4.20;;;2.20;;
8791;SDS011;4432;50.890;4.744;2022-08-30T00:10:17;2.47;;;2.07;;
8791;SDS011;4432;50.890;4.744;2022-08-30T00:12:44;4.10;;;2.13;;
8791;SDS011;4432;50.890;4.744;2022-08-30T00:15:10;2.63;;;2.07;;
8791;SDS011;4432;50.890;4.744;2022-08-30T00:17:37;2.13;;;1.90;;
8791;SDS011;4432;50.890;4.744;2022-08-30T00:20:04;3.13;;;2.10;;
8791;SDS011;4432;50.890;4.744;2022-08-30T00:22:31;3.93;;;2.37;;
8791;SDS011;4432;50.890;4.744;2022-08-30T00:24:57;2.87;;;2.03;;
8791;SDS011;4432;50.890;4.744;2022-08-30T00:27:25;4.37;;;2.33;;
8791;SDS011;4432;50.890;4.744;2022-08-30T00:29:52;3.47;;;2.30;;
8791;SDS011;4432;50.890;4.744;2022-08-30T00:32:18;4.20;;;2.40;;
8791;SDS011;4432;50.890;4.744;2022-08-30T00:34:49;6.30;;;2.40;;
8791;SDS011;4432;50.890;4.744;2022-08-30T00:37:16;4.27;;;2.20;;
8791;SDS011;4432;50.890;4.744;2022-08-30T00:39:43;4.50;;;2.40;;
8791;SDS011;4432;50.890;4.744;2022-08-30T00:42:09;3.67;;;2.40;;
8791;SDS011;4432;50.890;4.744;2022-08-30T00:44:37;5.83;;;2.40;;
8791;SDS011;4432;50.890;4.744;2022-08-30T00:47:03;2.90;;;2.27;;
8791;SDS011;4432;50.890;4.744;2022-08-30T00:49:29;3.10;;;2.40;;
8791;SDS011;4432;50.890;4.744;2022-08-30T00:51:56;4.90;;;2.50;;
8791;SDS011;4432;50.890;4.744;2022-08-30T00:54:23;3.00;;;2.70;;
8791;SDS011;4432;50.890;4.744;2022-08-30T00:56:49;5.50;;;2.43;;
8791;SDS011;4432;50.890;4.744;2022-08-30T00:59:16;8.03;;;2.67;;
8791;SDS011;4432;50.890;4.744;2022-08-30T01:01:44;2.83;;;2.40;;
8791;SDS011;4432;50.890;4.744;2022-08-30T01:04:10;5.03;;;2.57;;
8791;SDS011;4432;50.890;4.744;2022-08-30T01:06:39;3.27;;;2.67;;
8791;SDS011;4432;50.890;4.744;2022-08-30T01:09:06;4.23;;;2.40;;
8791;SDS011;4432;50.890;4.744;2022-08-30T01:11:32;4.43;;;2.57;;
8791;SDS011;4432;50.890;4.744;2022-08-30T01:14:01;5.00;;;2.70;;
8791;SDS011;4432;50.890;4.744;2022-08-30T01:16:29;6.73;;;3.07;;
8791;SDS011;4432;50.890;4.744;2022-08-30T01:18:56;2.93;;;2.63;;
8791;SDS011;4432;50.890;4.744;2022-08-30T01:21:41;4.57;;;2.90;;
8791;SDS011;4432;50.890;4.744;2022-08-30T01:24:15;6.33;;;2.77;;
8791;SDS011;4432;50.890;4.744;2022-08-30T01:26:42;4.50;;;2.53;;
8791;SDS011;4432;50.890;4.744;2022-08-30T01:29:09;4.03;;;2.67;;
8791;SDS011;4432;50.890;4.744;2022-08-30T01:31:44;4.07;;;2.53;;
8791;SDS011;4432;50.890;4.744;2022-08-30T01:34:10;6.73;;;3.30;;
8791;SDS011;4432;50.890;4.744;2022-08-30T01:36:36;5.43;;;3.13;;
8791;SDS011;4432;50.890;4.744;2022-08-30T01:39:05;5.63;;;3.20;;
8791;SDS011;4432;50.890;4.744;2022-08-30T01:41:33;5.30;;;2.83;;
8791;SDS011;4432;50.890;4.744;2022-08-30T01:44:01;5.67;;;2.83;;
8791;SDS011;4432;50.890;4.744;2022-08-30T01:46:32;3.07;;;2.53;;
8791;SDS011;4432;50.890;4.744;2022-08-30T01:49:00;5.37;;;2.70;;
8791;SDS011;4432;50.890;4.744;2022-08-30T01:51:28;4.03;;;2.70;;
8791;SDS011;4432;50.890;4.744;2022-08-30T01:53:54;3.87;;;2.90;;
8791;SDS011;4432;50.890;4.744;2022-08-30T01:56:21;3.53;;;2.67;;
8791;SDS011;4432;50.890;4.744;2022-08-30T01:58:51;4.40;;;2.80;;
8791;SDS011;4432;50.890;4.744;2022-08-30T02:01:19;3.57;;;2.83;;
8791;SDS011;4432;50.890;4.744;2022-08-30T02:03:47;3.93;;;3.10;;
8791;SDS011;4432;50.890;4.744;2022-08-30T02:06:16;6.60;;;2.80;;
8791;SDS011;4432;50.890;4.744;2022-08-30T02:08:43;7.30;;;3.30;;
8791;SDS011;4432;50.890;4.744;2022-08-30T02:11:09;6.50;;;2.87;;
8791;SDS011;4432;50.890;4.744;2022-08-30T02:13:36;8.30;;;3.00;;
8791;SDS011;4432;50.890;4.744;2022-08-30T02:16:07;5.57;;;3.10;;
8791;SDS011;4432;50.890;4.744;2022-08-30T02:18:36;5.23;;;3.17;;
8791;SDS011;4432;50.890;4.744;2022-08-30T02:21:07;5.80;;;3.10;;
8791;SDS011;4432;50.890;4.744;2022-08-30T02:23:34;4.50;;;3.07;;
8791;SDS011;4432;50.890;4.744;2022-08-30T02:26:00;7.83;;;3.27;;
8791;SDS011;4432;50.890;4.744;2022-08-30T02:28:26;5.87;;;3.10;;
8791;SDS011;4432;50.890;4.744;2022-08-30T02:30:52;7.00;;;3.37;;
8791;SDS011;4432;50.890;4.744;2022-08-30T02:33:18;8.57;;;3.53;;
8791;SDS011;4432;50.890;4.744;2022-08-30T02:35:44;7.03;;;3.30;;
8791;SDS011;4432;50.890;4.744;2022-08-30T02:38:10;5.70;;;3.20;;
8791;SDS011;4432;50.890;4.744;2022-08-30T02:40:36;7.43;;;2.97;;
8791;SDS011;4432;50.890;4.744;2022-08-30T02:43:02;3.83;;;2.70;;
8791;SDS011;4432;50.890;4.744;2022-08-30T02:45:28;5.17;;;2.90;;
8791;SDS011;4432;50.890;4.744;2022-08-30T02:47:53;5.17;;;2.93;;
8791;SDS011;4432;50.890;4.744;2022-08-30T02:50:20;5.63;;;3.20;;
8791;SDS011;4432;50.890;4.744;2022-08-30T02:52:47;6.40;;;3.43;;
8791;SDS011;4432;50.890;4.744;2022-08-30T02:55:13;4.47;;;3.17;;
8791;SDS011;4432;50.890;4.744;2022-08-30T02:57:39;3.30;;;3.00;;
8791;SDS011;4432;50.890;4.744;2022-08-30T03:00:06;7.20;;;3.37;;
8791;SDS011;4432;50.890;4.744;2022-08-30T03:02:33;6.83;;;3.03;;
8791;SDS011;4432;50.890;4.744;2022-08-30T03:04:59;5.40;;;3.00;;
8791;SDS011;4432;50.890;4.744;2022-08-30T03:07:25;6.77;;;3.40;;
8791;SDS011;4432;50.890;4.744;2022-08-30T03:09:51;6.13;;;3.10;;
8791;SDS011;4432;50.890;4.744;2022-08-30T03:12:17;5.20;;;3.23;;
8791;SDS011;4432;50.890;4.744;2022-08-30T03:14:43;6.97;;;3.43;;
8791;SDS011;4432;50.890;4.744;2022-08-30T03:17:09;9.30;;;3.33;;
8791;SDS011;4432;50.890;4.744;2022-08-30T03:19:35;5.93;;;3.40;;
8791;SDS011;4432;50.890;4.744;2022-08-30T03:22:03;7.53;;;3.73;;
8791;SDS011;4432;50.890;4.744;2022-08-30T03:24:29;7.63;;;4.17;;
8791;SDS011;4432;50.890;4.744;2022-08-30T03:26:56;11.50;;;3.43;;
8791;SDS011;4432;50.890;4.744;2022-08-30T03:29:22;3.83;;;3.27;;
8791;SDS011;4432;50.890;4.744;2022-08-30T03:31:48;8.40;;;3.43;;
8791;SDS011;4432;50.890;4.744;2022-08-30T03:34:14;4.13;;;3.10;;
8791;SDS011;4432;50.890;4.744;2022-08-30T03:36:40;11.23;;;3.77;;
8791;SDS011;4432;50.890;4.744;2022-08-30T03:39:06;6.50;;;3.27;;
8791;SDS011;4432;50.890;4.744;2022-08-30T03:41:32;5.60;;;3.20;;
8791;SDS011;4432;50.890;4.744;2022-08-30T03:43:59;3.87;;;3.33;;
8791;SDS011;4432;50.890;4.744;2022-08-30T03:46:26;4.33;;;3.30;;
8791;SDS011;4432;50.890;4.744;2022-08-30T03:48:52;6.97;;;4.07;;
8791;SDS011;4432;50.890;4.744;2022-08-30T03:51:22;4.90;;;3.23;;
8791;SDS011;4432;50.890;4.744;2022-08-30T03:53:48;4.53;;;3.33;;
8791;SDS011;4432;50.890;4.744;2022-08-30T03:56:14;4.20;;;3.13;;
8791;SDS011;4432;50.890;4.744;2022-08-30T03:58:41;4.10;;;3.10;;
8791;SDS011;4432;50.890;4.744;2022-08-30T04:01:07;9.60;;;3.97;;
8791;SDS011;4432;50.890;4.744;2022-08-30T04:03:32;9.70;;;3.87;;
8791;SDS011;4432;50.890;4.744;2022-08-30T04:05:59;6.57;;;4.17;;
8791;SDS011;4432;50.890;4.744;2022-08-30T04:08:25;5.13;;;3.77;;
8791;SDS011;4432;50.890;4.744;2022-08-30T04:10:51;9.73;;;3.00;;
8791;SDS011;4432;50.890;4.744;2022-08-30T04:13:18;4.40;;;3.70;;
8791;SDS011;4432;50.890;4.744;2022-08-30T04:15:44;4.30;;;3.30;;
8791;SDS011;4432;50.890;4.744;2022-08-30T04:18:10;3.83;;;3.47;;
8791;SDS011;4432;50.890;4.744;2022-08-30T04:20:36;6.10;;;3.60;;
8791;SDS011;4432;50.890;4.744;2022-08-30T04:23:06;5.40;;;3.80;;
8791;SDS011;4432;50.890;4.744;2022-08-30T04:25:33;3.90;;;3.20;;
8791;SDS011;4432;50.890;4.744;2022-08-30T04:27:59;5.00;;;3.60;;
8791;SDS011;4432;50.890;4.744;2022-08-30T04:30:25;6.23;;;3.73;;
8791;SDS011;4432;50.890;4.744;2022-08-30T04:32:51;8.27;;;4.13;;
8791;SDS011;4432;50.890;4.744;2022-08-30T04:35:17;4.77;;;3.70;;
8791;SDS011;4432;50.890;4.744;2022-08-30T04:37:43;8.90;;;3.93;;
8791;SDS011;4432;50.890;4.744;2022-08-30T04:40:09;6.57;;;3.90;;
8791;SDS011;4432;50.890;4.744;2022-08-30T04:42:35;7.37;;;3.83;;
8791;SDS011;4432;50.890;4.744;2022-08-30T04:45:02;3.97;;;3.40;;
8791;SDS011;4432;50.890;4.744;2022-08-30T04:47:29;5.07;;;3.40;;
8791;SDS011;4432;50.890;4.744;2022-08-30T04:49:56;6.90;;;3.83;;
8791;SDS011;4432;50.890;4.744;2022-08-30T04:52:22;6.63;;;3.63;;
8791;SDS011;4432;50.890;4.744;2022-08-30T04:54:52;7.23;;;4.23;;
8791;SDS011;4432;50.890;4.744;2022-08-30T04:57:21;4.47;;;3.73;;
8791;SDS011;4432;50.890;4.744;2022-08-30T04:59:47;5.10;;;3.63;;
8791;SDS011;4432;50.890;4.744;2022-08-30T05:02:13;5.73;;;4.50;;
8791;SDS011;4432;50.890;4.744;2022-08-30T05:04:39;8.90;;;3.93;;
8791;SDS011;4432;50.890;4.744;2022-08-30T05:07:28;5.30;;;3.33;;
8791;SDS011;4432;50.890;4.744;2022-08-30T05:09:54;4.70;;;3.83;;
8791;SDS011;4432;50.890;4.744;2022-08-30T05:12:20;7.67;;;3.97;;
8791;SDS011;4432;50.890;4.744;2022-08-30T05:14:46;3.70;;;3.33;;
8791;SDS011;4432;50.890;4.744;2022-08-30T05:17:12;7.13;;;3.87;;
8791;SDS011;4432;50.890;4.744;2022-08-30T05:19:38;5.07;;;3.93;;
8791;SDS011;4432;50.890;4.744;2022-08-30T05:22:03;6.63;;;4.10;;
8791;SDS011;4432;50.890;4.744;2022-08-30T05:24:29;13.10;;;3.87;;
8791;SDS011;4432;50.890;4.744;2022-08-30T05:26:56;5.87;;;3.90;;
8791;SDS011;4432;50.890;4.744;2022-08-30T05:29:22;6.37;;;4.23;;
8791;SDS011;4432;50.890;4.744;2022-08-30T05:31:49;6.63;;;4.13;;
8791;SDS011;4432;50.890;4.744;2022-08-30T05:34:15;5.97;;;3.93;;
8791;SDS011;4432;50.890;4.744;2022-08-30T05:36:41;5.47;;;4.07;;
8791;SDS011;4432;50.890;4.744;2022-08-30T05:39:07;7.70;;;3.90;;
8791;SDS011;4432;50.890;4.744;2022-08-30T05:41:34;7.67;;;4.13;;
8791;SDS011;4432;50.890;4.744;2022-08-30T05:44:02;5.90;;;4.17;;
8791;SDS011;4432;50.890;4.744;2022-08-30T05:46:28;6.47;;;4.60;;
8791;SDS011;4432;50.890;4.744;2022-08-30T05:48:57;6.87;;;4.40;;
8791;SDS011;4432;50.890;4.744;2022-08-30T05:51:26;8.23;;;4.77;;
8791;SDS011;4432;50.890;4.744;2022-08-30T05:53:53;6.77;;;4.13;;
8791;SDS011;4432;50.890;4.744;2022-08-30T05:56:22;6.53;;;4.30;;
8791;SDS011;4432;50.890;4.744;2022-08-30T05:58:50;6.80;;;4.20;;
8791;SDS011;4432;50.890;4.744;2022-08-30T06:01:21;8.83;;;4.73;;
8791;SDS011;4432;50.890;4.744;2022-08-30T06:03:49;5.30;;;4.43;;
8791;SDS011;4432;50.890;4.744;2022-08-30T06:06:15;10.20;;;4.80;;
8791;SDS011;4432;50.890;4.744;2022-08-30T06:08:41;6.73;;;4.70;;
8791;SDS011;4432;50.890;4.744;2022-08-30T06:11:10;4.93;;;4.40;;
8791;SDS011;4432;50.890;4.744;2022-08-30T06:13:37;6.40;;;4.33;;
8791;SDS011;4432;50.890;4.744;2022-08-30T06:16:03;8.10;;;5.20;;
8791;SDS011;4432;50.890;4.744;2022-08-30T06:18:29;5.93;;;4.90;;
8791;SDS011;4432;50.890;4.744;2022-08-30T06:20:55;6.70;;;5.30;;
8791;SDS011;4432;50.890;4.744;2022-08-30T06:23:21;5.63;;;4.70;;
8791;SDS011;4432;50.890;4.744;2022-08-30T06:25:47;6.47;;;4.47;;
8791;SDS011;4432;50.890;4.744;2022-08-30T06:28:13;5.47;;;4.27;;
8791;SDS011;4432;50.890;4.744;2022-08-30T06:30:40;7.70;;;4.50;;
8791;SDS011;4432;50.890;4.744;2022-08-30T06:33:06;9.13;;;4.77;;
8791;SDS011;4432;50.890;4.744;2022-08-30T06:35:34;7.83;;;5.03;;
8791;SDS011;4432;50.890;4.744;2022-08-30T06:38:00;8.27;;;4.83;;
8791;SDS011;4432;50.890;4.744;2022-08-30T06:40:26;6.30;;;4.50;;
8791;SDS011;4432;50.890;4.744;2022-08-30T06:42:52;7.13;;;4.83;;
8791;SDS011;4432;50.890;4.744;2022-08-30T06:45:19;5.93;;;4.57;;
8791;SDS011;4432;50.890;4.744;2022-08-30T06:47:45;5.90;;;4.30;;
8791;SDS011;4432;50.890;4.744;2022-08-30T06:50:12;5.77;;;4.60;;
8791;SDS011;4432;50.890;4.744;2022-08-30T06:52:40;7.03;;;5.17;;
8791;SDS011;4432;50.890;4.744;2022-08-30T06:55:07;5.00;;;4.50;;
8791;SDS011;4432;50.890;4.744;2022-08-30T06:57:34;7.37;;;5.20;;
8791;SDS011;4432;50.890;4.744;2022-08-30T06:59:59;7.53;;;4.37;;
8791;SDS011;4432;50.890;4.744;2022-08-30T07:02:26;9.30;;;4.40;;
8791;SDS011;4432;50.890;4.744;2022-08-30T07:04:52;7.87;;;4.83;;
8791;SDS011;4432;50.890;4.744;2022-08-30T07:07:18;6.07;;;4.47;;
8791;SDS011;4432;50.890;4.744;2022-08-30T07:09:44;5.07;;;4.03;;
8791;SDS011;4432;50.890;4.744;2022-08-30T07:12:11;6.57;;;4.30;;
8791;SDS011;4432;50.890;4.744;2022-08-30T07:14:38;5.27;;;4.30;;
8791;SDS011;4432;50.890;4.744;2022-08-30T07:17:04;5.57;;;4.27;;
8791;SDS011;4432;50.890;4.744;2022-08-30T07:19:51;6.47;;;4.23;;
8791;SDS011;4432;50.890;4.744;2022-08-30T07:22:18;6.60;;;4.40;;
8791;SDS011;4432;50.890;4.744;2022-08-30T07:24:43;5.17;;;4.27;;
8791;SDS011;4432;50.890;4.744;2022-08-30T07:27:09;4.77;;;4.27;;
8791;SDS011;4432;50.890;4.744;2022-08-30T07:29:35;8.17;;;4.10;;
8791;SDS011;4432;50.890;4.744;2022-08-30T07:32:01;5.27;;;4.30;;
8791;SDS011;4432;50.890;4.744;2022-08-30T07:34:27;4.57;;;3.90;;
8791;SDS011;4432;50.890;4.744;2022-08-30T07:36:52;4.80;;;4.10;;
8791;SDS011;4432;50.890;4.744;2022-08-30T07:39:18;7.90;;;4.23;;
8791;SDS011;4432;50.890;4.744;2022-08-30T07:41:44;12.13;;;3.90;;
8791;SDS011;4432;50.890;4.744;2022-08-30T07:44:10;5.23;;;3.90;;
8791;SDS011;4432;50.890;4.744;2022-08-30T07:46:37;6.10;;;4.00;;
8791;SDS011;4432;50.890;4.744;2022-08-30T07:49:04;5.33;;;3.60;;
8791;SDS011;4432;50.890;4.744;2022-08-30T07:51:31;6.47;;;3.73;;
8791;SDS011;4432;50.890;4.744;2022-08-30T07:53:57;4.60;;;3.67;;
8791;SDS011;4432;50.890;4.744;2022-08-30T07:56:23;6.57;;;3.80;;
8791;SDS011;4432;50.890;4.744;2022-08-30T07:58:49;4.57;;;3.13;;
8791;SDS011;4432;50.890;4.744;2022-08-30T08:01:16;6.27;;;3.53;;
8791;SDS011;4432;50.890;4.744;2022-08-30T08:03:43;5.00;;;3.27;;
8791;SDS011;4432;50.890;4.744;2022-08-30T08:06:10;7.67;;;3.77;;
8791;SDS011;4432;50.890;4.744;2022-08-30T08:08:38;9.23;;;3.80;;
8791;SDS011;4432;50.890;4.744;2022-08-30T08:11:05;3.87;;;3.43;;
8791;SDS011;4432;50.890;4.744;2022-08-30T08:13:32;5.67;;;3.20;;
8791;SDS011;4432;50.890;4.744;2022-08-30T08:15:58;4.43;;;3.03;;
8791;SDS011;4432;50.890;4.744;2022-08-30T08:18:24;6.50;;;3.40;;
8791;SDS011;4432;50.890;4.744;2022-08-30T08:20:50;5.03;;;2.70;;
8791;SDS011;4432;50.890;4.744;2022-08-30T08:23:16;5.23;;;2.77;;
8791;SDS011;4432;50.890;4.744;2022-08-30T08:25:41;5.43;;;2.77;;
8791;SDS011;4432;50.890;4.744;2022-08-30T08:28:07;5.37;;;3.20;;
8791;SDS011;4432;50.890;4.744;2022-08-30T08:30:34;4.97;;;2.93;;
8791;SDS011;4432;50.890;4.744;2022-08-30T08:33:04;3.83;;;2.80;;
8791;SDS011;4432;50.890;4.744;2022-08-30T08:35:30;3.67;;;2.60;;
8791;SDS011;4432;50.890;4.744;2022-08-30T08:37:56;3.53;;;2.80;;
8791;SDS011;4432;50.890;4.744;2022-08-30T08:40:22;3.97;;;2.90;;
8791;SDS011;4432;50.890;4.744;2022-08-30T08:45:35;7.77;;;2.53;;
8791;SDS011;4432;50.890;4.744;2022-08-30T08:50:49;5.93;;;2.50;;
8791;SDS011;4432;50.890;4.744;2022-08-30T08:53:34;7.83;;;3.00;;
8791;SDS011;4432;50.890;4.744;2022-08-30T08:56:19;4.57;;;2.83;;
8791;SDS011;4432;50.890;4.744;2022-08-30T08:58:51;8.17;;;3.00;;
8791;SDS011;4432;50.890;4.744;2022-08-30T09:01:22;2.60;;;2.40;;
8791;SDS011;4432;50.890;4.744;2022-08-30T09:03:51;3.50;;;2.60;;
8791;SDS011;4432;50.890;4.744;2022-08-30T09:09:13;3.17;;;2.70;;
8791;SDS011;4432;50.890;4.744;2022-08-30T09:11:40;5.50;;;3.00;;
8791;SDS011;4432;50.890;4.744;2022-08-30T09:14:11;3.80;;;2.53;;
8791;SDS011;4432;50.890;4.744;2022-08-30T09:19:32;2.33;;;2.10;;
8791;SDS011;4432;50.890;4.744;2022-08-30T09:22:34;4.37;;;2.27;;
8791;SDS011;4432;50.890;4.744;2022-08-30T09:27:41;3.40;;;2.53;;
8791;SDS011;4432;50.890;4.744;2022-08-30T09:30:19;3.70;;;2.67;;
8791;SDS011;4432;50.890;4.744;2022-08-30T09:35:24;3.03;;;2.53;;
8791;SDS011;4432;50.890;4.744;2022-08-30T09:38:10;3.67;;;2.77;;
8791;SDS011;4432;50.890;4.744;2022-08-30T09:40:43;4.63;;;2.77;;
8791;SDS011;4432;50.890;4.744;2022-08-30T09:43:19;6.03;;;2.43;;
8791;SDS011;4432;50.890;4.744;2022-08-30T09:46:09;3.77;;;2.60;;
8791;SDS011;4432;50.890;4.744;2022-08-30T09:48:41;3.07;;;2.50;;
8791;SDS011;4432;50.890;4.744;2022-08-30T09:53:38;2.73;;;2.27;;
8791;SDS011;4432;50.890;4.744;2022-08-30T09:56:15;3.77;;;2.23;;
8791;SDS011;4432;50.890;4.744;2022-08-30T09:59:35;4.53;;;2.17;;
8791;SDS011;4432;50.890;4.744;2022-08-30T10:02:12;2.40;;;2.10;;
8791;SDS011;4432;50.890;4.744;2022-08-30T10:10:39;3.10;;;1.90;;
8791;SDS011;4432;50.890;4.744;2022-08-30T10:24:45;4.13;;;2.50;;
8791;SDS011;4432;50.890;4.744;2022-08-30T10:27:22;3.67;;;2.03;;
8791;SDS011;4432;50.890;4.744;2022-08-30T10:30:05;3.13;;;2.20;;
8791;SDS011;4432;50.890;4.744;2022-08-30T10:32:41;3.07;;;2.30;;
8791;SDS011;4432;50.890;4.744;2022-08-30T10:35:09;2.10;;;1.90;;
8791;SDS011;4432;50.890;4.744;2022-08-30T10:37:47;2.40;;;1.90;;
8791;SDS011;4432;50.890;4.744;2022-08-30T10:40:20;3.80;;;1.80;;
8791;SDS011;4432;50.890;4.744;2022-08-30T10:43:18;6.17;;;2.20;;
8791;SDS011;4432;50.890;4.744;2022-08-30T10:45:59;3.50;;;1.70;;
8791;SDS011;4432;50.890;4.744;2022-08-30T10:48:38;1.87;;;1.73;;
8791;SDS011;4432;50.890;4.744;2022-08-30T10:51:09;3.00;;;2.20;;
8791;SDS011;4432;50.890;4.744;2022-08-30T10:53:46;1.93;;;1.80;;
8791;SDS011;4432;50.890;4.744;2022-08-30T10:56:18;4.03;;;2.07;;
8791;SDS011;4432;50.890;4.744;2022-08-30T10:58:48;2.30;;;2.10;;
8791;SDS011;4432;50.890;4.744;2022-08-30T11:12:23;4.07;;;1.77;;
8791;SDS011;4432;50.890;4.744;2022-08-30T11:14:58;2.17;;;1.67;;
8791;SDS011;4432;50.890;4.744;2022-08-30T11:17:39;2.33;;;1.80;;
8791;SDS011;4432;50.890;4.744;2022-08-30T11:33:55;2.27;;;1.83;;
8791;SDS011;4432;50.890;4.744;2022-08-30T11:46:46;2.47;;;1.73;;
8791;SDS011;4432;50.890;4.744;2022-08-30T12:02:42;2.40;;;1.97;;
8791;SDS011;4432;50.890;4.744;2022-08-30T12:08:03;4.90;;;1.77;;
8791;SDS011;4432;50.890;4.744;2022-08-30T12:10:39;3.60;;;1.63;;
8791;SDS011;4432;50.890;4.744;2022-08-30T12:13:11;3.47;;;2.03;;
8791;SDS011;4432;50.890;4.744;2022-08-30T12:18:43;2.20;;;2.00;;
8791;SDS011;4432;50.890;4.744;2022-08-30T12:21:21;5.23;;;2.13;;
8791;SDS011;4432;50.890;4.744;2022-08-30T12:28:48;4.47;;;2.40;;
8791;SDS011;4432;50.890;4.744;2022-08-30T12:31:30;6.43;;;2.20;;
8791;SDS011;4432;50.890;4.744;2022-08-30T12:33:57;5.13;;;2.37;;
8791;SDS011;4432;50.890;4.744;2022-08-30T12:36:35;8.63;;;2.07;;
8791;SDS011;4432;50.890;4.744;2022-08-30T12:39:15;3.40;;;1.87;;
8791;SDS011;4432;50.890;4.744;2022-08-30T12:41:43;4.47;;;2.20;;
8791;SDS011;4432;50.890;4.744;2022-08-30T12:44:17;2.37;;;2.10;;
8791;SDS011;4432;50.890;4.744;2022-08-30T12:46:50;2.73;;;2.23;;
8791;SDS011;4432;50.890;4.744;2022-08-30T12:49:27;3.97;;;1.83;;
8791;SDS011;4432;50.890;4.744;2022-08-30T12:51:55;4.53;;;2.07;;
8791;SDS011;4432;50.890;4.744;2022-08-30T12:54:39;8.27;;;2.03;;
8791;SDS011;4432;50.890;4.744;2022-08-30T12:57:05;1.93;;;1.77;;
8791;SDS011;4432;50.890;4.744;2022-08-30T13:02:25;1.93;;;1.70;;
8791;SDS011;4432;50.890;4.744;2022-08-30T13:04:53;6.00;;;2.23;;
8791;SDS011;4432;50.890;4.744;2022-08-30T13:07:28;5.07;;;2.30;;
8791;SDS011;4432;50.890;4.744;2022-08-30T13:10:03;2.87;;;2.30;;
8791;SDS011;4432;50.890;4.744;2022-08-30T13:12:37;3.60;;;2.00;;
8791;SDS011;4432;50.890;4.744;2022-08-30T13:15:18;4.10;;;2.20;;
8791;SDS011;4432;50.890;4.744;2022-08-30T13:18:09;6.00;;;2.03;;
8791;SDS011;4432;50.890;4.744;2022-08-30T13:20:42;2.83;;;1.90;;
8791;SDS011;4432;50.890;4.744;2022-08-30T13:23:10;2.50;;;1.90;;
8791;SDS011;4432;50.890;4.744;2022-08-30T13:25:44;4.73;;;1.93;;
8791;SDS011;4432;50.890;4.744;2022-08-30T13:28:10;1.93;;;1.80;;
8791;SDS011;4432;50.890;4.744;2022-08-30T13:30:36;3.37;;;1.77;;
8791;SDS011;4432;50.890;4.744;2022-08-30T13:33:02;1.77;;;1.67;;
8791;SDS011;4432;50.890;4.744;2022-08-30T13:35:28;3.77;;;1.80;;
8791;SDS011;4432;50.890;4.744;2022-08-30T13:37:55;3.73;;;1.87;;
8791;SDS011;4432;50.890;4.744;2022-08-30T13:40:23;4.37;;;2.00;;
8791;SDS011;4432;50.890;4.744;2022-08-30T13:42:49;2.47;;;1.60;;
8791;SDS011;4432;50.890;4.744;2022-08-30T13:45:15;2.43;;;1.77;;
8791;SDS011;4432;50.890;4.744;2022-08-30T13:47:43;3.10;;;2.07;;
8791;SDS011;4432;50.890;4.744;2022-08-30T13:50:11;6.27;;;1.93;;
8791;SDS011;4432;50.890;4.744;2022-08-30T13:52:37;1.70;;;1.60;;
8791;SDS011;4432;50.890;4.744;2022-08-30T13:55:03;2.03;;;1.83;;
8791;SDS011;4432;50.890;4.744;2022-08-30T13:57:29;5.90;;;2.10;;
8791;SDS011;4432;50.890;4.744;2022-08-30T13:59:56;1.80;;;1.60;;
8791;SDS011;4432;50.890;4.744;2022-08-30T14:02:22;5.00;;;1.93;;
8791;SDS011;4432;50.890;4.744;2022-08-30T14:04:48;3.07;;;1.93;;
8791;SDS011;4432;50.890;4.744;2022-08-30T14:07:14;3.10;;;1.70;;
8791;SDS011;4432;50.890;4.744;2022-08-30T14:09:40;5.20;;;1.97;;
8791;SDS011;4432;50.890;4.744;2022-08-30T14:12:05;4.43;;;2.00;;
8791;SDS011;4432;50.890;4.744;2022-08-30T14:14:31;4.13;;;1.80;;
8791;SDS011;4432;50.890;4.744;2022-08-30T14:16:57;2.77;;;2.10;;
8791;SDS011;4432;50.890;4.744;2022-08-30T14:19:23;3.60;;;1.80;;
8791;SDS011;4432;50.890;4.744;2022-08-30T14:21:49;2.97;;;1.67;;
8791;SDS011;4432;50.890;4.744;2022-08-30T14:24:15;1.77;;;1.67;;
8791;SDS011;4432;50.890;4.744;2022-08-30T14:26:42;4.17;;;1.90;;
8791;SDS011;4432;50.890;4.744;2022-08-30T14:29:12;3.53;;;1.47;;
8791;SDS011;4432;50.890;4.744;2022-08-30T14:31:41;2.97;;;1.73;;
8791;SDS011;4432;50.890;4.744;2022-08-30T14:34:08;1.97;;;1.80;;
8791;SDS011;4432;50.890;4.744;2022-08-30T14:36:36;4.10;;;1.83;;
8791;SDS011;4432;50.890;4.744;2022-08-30T14:39:04;3.53;;;2.00;;
8791;SDS011;4432;50.890;4.744;2022-08-30T14:41:31;2.10;;;1.50;;
8791;SDS011;4432;50.890;4.744;2022-08-30T14:43:57;3.67;;;1.80;;
8791;SDS011;4432;50.890;4.744;2022-08-30T14:46:23;5.07;;;1.90;;
8791;SDS011;4432;50.890;4.744;2022-08-30T14:48:51;5.03;;;1.50;;
8791;SDS011;4432;50.890;4.744;2022-08-30T14:51:19;2.10;;;1.73;;
8791;SDS011;4432;50.890;4.744;2022-08-30T14:53:46;3.10;;;1.53;;
8791;SDS011;4432;50.890;4.744;2022-08-30T14:56:16;4.27;;;2.10;;
8791;SDS011;4432;50.890;4.744;2022-08-30T14:58:43;2.23;;;1.73;;
8791;SDS011;4432;50.890;4.744;2022-08-30T15:01:09;4.57;;;1.80;;
8791;SDS011;4432;50.890;4.744;2022-08-30T15:03:36;2.50;;;1.90;;
8791;SDS011;4432;50.890;4.744;2022-08-30T15:06:03;2.53;;;1.70;;
8791;SDS011;4432;50.890;4.744;2022-08-30T15:08:30;3.83;;;1.90;;
8791;SDS011;4432;50.890;4.744;2022-08-30T15:10:56;2.00;;;1.80;;
8791;SDS011;4432;50.890;4.744;2022-08-30T15:13:23;3.80;;;1.90;;
8791;SDS011;4432;50.890;4.744;2022-08-30T15:15:49;3.67;;;1.97;;
8791;SDS011;4432;50.890;4.744;2022-08-30T15:18:15;1.43;;;1.33;;
8791;SDS011;4432;50.890;4.744;2022-08-30T15:20:47;5.53;;;1.67;;
8791;SDS011;4432;50.890;4.744;2022-08-30T15:23:14;5.43;;;1.50;;
8791;SDS011;4432;50.890;4.744;2022-08-30T15:25:41;2.40;;;1.77;;
8791;SDS011;4432;50.890;4.744;2022-08-30T15:28:07;2.33;;;1.90;;
8791;SDS011;4432;50.890;4.744;2022-08-30T15:30:33;3.63;;;1.60;;
8791;SDS011;4432;50.890;4.744;2022-08-30T15:33:00;2.73;;;1.60;;
8791;SDS011;4432;50.890;4.744;2022-08-30T15:35:26;8.00;;;1.70;;
8791;SDS011;4432;50.890;4.744;2022-08-30T15:37:52;3.57;;;1.60;;
8791;SDS011;4432;50.890;4.744;2022-08-30T15:40:18;1.57;;;1.47;;
8791;SDS011;4432;50.890;4.744;2022-08-30T15:42:44;1.60;;;1.50;;
8791;SDS011;4432;50.890;4.744;2022-08-30T15:45:10;1.63;;;1.43;;
8791;SDS011;4432;50.890;4.744;2022-08-30T15:47:35;1.93;;;1.83;;
8791;SDS011;4432;50.890;4.744;2022-08-30T15:50:02;4.37;;;1.50;;
8791;SDS011;4432;50.890;4.744;2022-08-30T15:52:30;2.73;;;1.37;;
8791;SDS011;4432;50.890;4.744;2022-08-30T15:54:57;1.67;;;1.57;;
8791;SDS011;4432;50.890;4.744;2022-08-30T15:57:23;1.67;;;1.57;;
8791;SDS011;4432;50.890;4.744;2022-08-30T15:59:49;1.93;;;1.37;;
8791;SDS011;4432;50.890;4.744;2022-08-30T16:02:15;1.50;;;1.40;;
8791;SDS011;4432;50.890;4.744;2022-08-30T16:04:41;2.43;;;1.33;;
8791;SDS011;4432;50.890;4.744;2022-08-30T16:07:07;2.17;;;1.50;;
8791;SDS011;4432;50.890;4.744;2022-08-30T16:09:33;5.90;;;1.70;;
8791;SDS011;4432;50.890;4.744;2022-08-30T16:12:01;3.43;;;1.40;;
8791;SDS011;4432;50.890;4.744;2022-08-30T16:14:28;1.40;;;1.30;;
8791;SDS011;4432;50.890;4.744;2022-08-30T16:16:54;2.93;;;1.50;;
8791;SDS011;4432;50.890;4.744;2022-08-30T16:19:20;1.30;;;1.20;;
8791;SDS011;4432;50.890;4.744;2022-08-30T16:21:46;2.83;;;2.03;;
8791;SDS011;4432;50.890;4.744;2022-08-30T16:24:12;2.93;;;1.63;;
8791;SDS011;4432;50.890;4.744;2022-08-30T16:26:39;1.83;;;1.63;;
8791;SDS011;4432;50.890;4.744;2022-08-30T16:29:06;1.87;;;1.57;;
8791;SDS011;4432;50.890;4.744;2022-08-30T16:31:33;4.20;;;1.60;;
8791;SDS011;4432;50.890;4.744;2022-08-30T16:34:00;3.10;;;1.50;;
8791;SDS011;4432;50.890;4.744;2022-08-30T16:36:26;3.10;;;1.47;;
8791;SDS011;4432;50.890;4.744;2022-08-30T16:38:52;3.90;;;1.50;;
8791;SDS011;4432;50.890;4.744;2022-08-30T16:41:19;4.23;;;1.23;;
8791;SDS011;4432;50.890;4.744;2022-08-30T16:43:46;1.70;;;1.60;;
8791;SDS011;4432;50.890;4.744;2022-08-30T16:46:13;2.90;;;1.80;;
8791;SDS011;4432;50.890;4.744;2022-08-30T16:48:41;2.27;;;1.57;;
8791;SDS011;4432;50.890;4.744;2022-08-30T16:51:09;2.13;;;1.73;;
8791;SDS011;4432;50.890;4.744;2022-08-30T16:53:37;1.90;;;1.53;;
8791;SDS011;4432;50.890;4.744;2022-08-30T16:56:04;1.87;;;1.60;;
8791;SDS011;4432;50.890;4.744;2022-08-30T16:58:34;3.37;;;1.20;;
8791;SDS011;4432;50.890;4.744;2022-08-30T17:01:00;2.37;;;1.43;;